Time;durP1;ratioP1;P1;durP2;ratioP2;P2;SDS_P1;SDS_P2;PMS_P1;PMS_P2;Temp;Humidity;BMP_temperature;BMP_pressure;BME280_temperature;BME280_humidity;BME280_pressure;Samples;Min_cycle;Max_cycle;Signal;HPM_P1;HPM_P2
2023/02/11 00:01:59;;;;;;;99.13;65.25;;;;;;;-1.91;80.09;100108.50;4994380;28;20041;-74
2023/02/11 00:04:24;;;;;;;90.65;75.35;;;;;;;-1.90;80.08;100104.91;5026972;28;20052;-74
2023/02/11 00:06:49;;;;;;;84.70;75.30;;;;;;;-1.93;79.63;100101.66;4992056;28;20034;-73
2023/02/11 00:09:15;;;;;;;81.38;71.65;;;;;;;-1.87;79.83;100107.31;4998191;28;20021;-74
2023/02/11 00:11:40;;;;;;;82.78;71.25;;;;;;;-1.84;80.18;100107.06;4997511;28;20120;-74
2023/02/11 00:14:07;;;;;;;83.43;72.10;;;;;;;-1.76;79.72;100115.25;5010731;28;20018;-74
2023/02/11 00:16:32;;;;;;;81.88;69.95;;;;;;;-1.71;79.68;100131.56;5010650;28;20030;-74
2023/02/11 00:18:59;;;;;;;89.10;75.70;;;;;;;-1.85;78.95;100133.59;5026444;28;20053;-73
2023/02/11 00:21:25;;;;;;;84.40;74.85;;;;;;;-1.97;79.89;100140.66;4994239;28;20118;-73
2023/02/11 00:23:51;;;;;;;86.78;76.53;;;;;;;-1.92;78.75;100125.31;4987260;28;20066;-74
2023/02/11 00:26:21;;;;;;;87.10;76.18;;;;;;;-1.83;79.43;100140.44;5006010;28;20065;-73
2023/02/11 00:28:48;;;;;;;93.18;59.80;;;;;;;-1.95;78.87;100125.53;5009929;28;20030;-73
2023/02/11 00:31:15;;;;;;;84.13;74.43;;;;;;;-1.85;78.55;100120.38;5011643;28;20069;-72
2023/02/11 00:33:40;;;;;;;88.72;77.30;;;;;;;-1.78;78.97;100117.16;5010796;28;20135;-74
2023/02/11 00:36:08;;;;;;;82.57;71.70;;;;;;;-1.81;79.66;100112.13;5011782;28;20537;-73
2023/02/11 00:38:34;;;;;;;83.82;73.75;;;;;;;-1.69;79.22;100108.53;4986167;28;20120;-73
2023/02/11 00:40:59;;;;;;;92.85;62.35;;;;;;;-1.77;80.46;100108.25;5021361;28;20645;-73
2023/02/11 00:43:25;;;;;;;87.35;75.80;;;;;;;-1.95;80.61;100093.88;5007157;28;20042;-74
2023/02/11 00:45:50;;;;;;;87.55;77.22;;;;;;;-1.89;80.12;100108.41;4975465;28;20493;-74
2023/02/11 00:48:16;;;;;;;88.88;64.10;;;;;;;-1.90;80.81;100101.41;5002613;28;20046;-74
2023/02/11 00:50:41;;;;;;;90.03;80.20;;;;;;;-1.88;80.82;100099.50;5004035;28;20096;-74
2023/02/11 00:53:07;;;;;;;90.60;80.43;;;;;;;-1.87;81.05;100106.47;4997819;28;20165;-74
2023/02/11 00:55:32;;;;;;;89.53;79.93;;;;;;;-1.76;80.65;100098.56;5009771;28;20025;-73
2023/02/11 00:57:58;;;;;;;88.07;78.47;;;;;;;-1.77;80.59;100091.56;4996517;28;20034;-74
2023/02/11 01:00:24;;;;;;;84.82;75.63;;;;;;;-1.58;80.01;100087.38;4993986;28;20022;-72
2023/02/11 01:02:50;;;;;;;85.40;75.93;;;;;;;-1.65;80.36;100080.91;5007078;28;20118;-73
2023/02/11 01:05:15;;;;;;;81.40;72.43;;;;;;;-1.62;79.98;100083.31;4990185;28;20539;-74
2023/02/11 01:07:41;;;;;;;81.25;69.88;;;;;;;-1.49;79.66;100085.81;5021910;28;20036;-73
2023/02/11 01:10:06;;;;;;;80.80;70.15;;;;;;;-1.45;79.40;100082.78;4991662;28;20018;-73
2023/02/11 01:12:31;;;;;;;75.88;67.57;;;;;;;-1.46;79.51;100080.28;5002704;28;20132;-73
2023/02/11 01:14:57;;;;;;;79.50;69.07;;;;;;;-1.45;79.21;100082.78;4993346;28;20053;-73
2023/02/11 01:17:22;;;;;;;79.10;69.30;;;;;;;-1.39;79.35;100078.81;5009580;28;20034;-73
2023/02/11 01:19:48;;;;;;;81.70;70.68;;;;;;;-1.50;78.79;100074.41;5026506;28;20038;-73
2023/02/11 01:22:14;;;;;;;78.35;67.15;;;;;;;-1.43;79.63;100086.19;4993347;28;20109;-75
2023/02/11 01:24:39;;;;;;;81.15;72.35;;;;;;;-1.47;79.16;100079.44;5011956;28;20090;-73
2023/02/11 01:27:06;;;;;;;79.25;70.57;;;;;;;-1.32;79.08;100081.81;5013006;28;20096;-74
2023/02/11 01:29:32;;;;;;;80.05;69.80;;;;;;;-1.36;78.87;100080.38;4997170;28;20038;-74
2023/02/11 01:31:59;;;;;;;79.10;67.95;;;;;;;-1.31;78.49;100083.50;5013469;28;20093;-73
2023/02/11 01:34:24;;;;;;;79.45;67.72;;;;;;;-1.36;78.32;100069.81;5029688;28;20033;-74
2023/02/11 01:36:49;;;;;;;76.55;68.20;;;;;;;-1.32;78.07;100071.25;5009608;28;20030;-73
2023/02/11 01:39:15;;;;;;;73.63;65.40;;;;;;;-1.34;78.50;100067.88;5027945;28;20049;-74
2023/02/11 01:41:40;;;;;;;78.03;66.60;;;;;;;-1.29;78.79;100071.84;5013327;28;20470;-75
2023/02/11 01:44:30;;;;;;;75.88;65.03;;;;;;;-1.26;78.17;100060.19;5013156;28;20021;-73
2023/02/11 01:46:55;;;;;;;73.97;64.82;;;;;;;-1.24;78.43;100055.63;5012749;28;20030;-74
2023/02/11 01:49:28;;;;;;;77.25;67.55;;;;;;;-1.25;78.07;100046.00;5029767;28;20460;-73
2023/02/11 01:52:08;;;;;;;74.05;65.68;;;;;;;-1.27;78.11;100047.94;5014577;28;20041;-72
2023/02/11 01:57:26;;;;;;;76.43;67.60;;;;;;;-1.42;79.39;100042.06;5000054;28;20061;-73
2023/02/11 02:00:06;;;;;;;76.57;68.05;;;;;;;-1.40;79.29;100027.78;5002535;28;20030;-73
2023/02/11 02:02:43;;;;;;;75.40;65.43;;;;;;;-1.33;79.17;100027.31;5009685;28;20045;-73
2023/02/11 02:05:21;;;;;;;81.40;67.93;;;;;;;-1.22;78.31;100024.63;4996714;28;20485;-73
2023/02/11 02:08:18;;;;;;;78.03;66.50;;;;;;;-1.33;78.97;100027.31;5009873;28;20132;-73
2023/02/11 02:10:46;;;;;;;75.53;63.80;;;;;;;-1.25;78.26;100030.16;5009602;28;20084;-74
2023/02/11 02:13:12;;;;;;;74.32;65.68;;;;;;;-1.17;78.60;100022.44;4993105;28;20030;-75
2023/02/11 02:15:39;;;;;;;73.22;64.13;;;;;;;-1.16;77.75;100030.25;4985921;28;20034;-76
2023/02/11 02:18:33;;;;;;;77.18;67.07;;;;;;;-1.22;78.33;100024.63;5012013;28;20033;-75
2023/02/11 02:21:21;;;;;;;75.35;66.03;;;;;;;-1.19;78.21;100014.63;4999687;28;20075;-74
2023/02/11 02:24:19;;;;;;;73.20;64.90;;;;;;;-1.21;78.55;100005.16;5016008;28;20042;-74
2023/02/11 02:27:14;;;;;;;73.50;64.00;;;;;;;-1.19;78.25;99988.19;5011978;28;20044;-73
2023/02/11 02:29:45;;;;;;;73.90;63.83;;;;;;;-1.15;78.50;99979.06;4996353;28;20101;-73
2023/02/11 02:32:29;;;;;;;74.93;63.05;;;;;;;-1.14;78.63;99974.59;5016580;28;20034;-74
2023/02/11 02:35:07;;;;;;;76.03;62.88;;;;;;;-1.19;78.80;99971.53;5016371;28;20022;-74
2023/02/11 02:37:41;;;;;;;72.30;62.67;;;;;;;-1.11;78.59;99977.00;5011773;28;20038;-74
2023/02/11 02:40:12;;;;;;;74.47;61.40;;;;;;;-1.00;78.16;99976.94;5012998;28;20056;-73
2023/02/11 02:42:39;;;;;;;71.78;63.35;;;;;;;-1.04;77.95;99970.25;5018975;28;20037;-74
2023/02/11 02:45:06;;;;;;;74.22;62.60;;;;;;;-0.99;77.65;99966.25;5014236;28;20085;-74
2023/02/11 02:47:31;;;;;;;70.63;63.05;;;;;;;-0.97;77.72;99971.41;5011858;28;20072;-75
2023/02/11 02:49:57;;;;;;;71.85;62.08;;;;;;;-0.97;77.63;99976.69;5028884;28;20026;-75
2023/02/11 02:52:34;;;;;;;68.72;61.15;;;;;;;-0.89;77.69;99979.56;5028720;28;20129;-73
2023/02/11 02:55:15;;;;;;;70.95;61.08;;;;;;;-1.03;77.99;99977.22;4998971;28;20042;-73
2023/02/11 02:58:03;;;;;;;71.10;60.15;;;;;;;-1.02;78.34;99984.16;5011463;28;20048;-72
2023/02/11 03:00:45;;;;;;;70.15;60.72;;;;;;;-1.10;78.53;99983.97;5012453;28;20112;-74
2023/02/11 03:03:20;;;;;;;75.18;64.95;;;;;;;-1.01;77.88;99983.22;5007152;28;20038;-74
2023/02/11 03:06:00;;;;;;;74.85;61.10;;;;;;;-1.12;78.35;99977.97;5006756;28;20125;-75
2023/02/11 03:08:54;;;;;;;73.82;63.72;;;;;;;-1.10;78.61;99984.81;5000662;28;20105;-74
2023/02/11 03:11:20;;;;;;;73.25;63.75;;;;;;;-1.03;78.70;99993.06;5009759;28;20069;-74
2023/02/11 03:13:47;;;;;;;74.22;63.03;;;;;;;-1.05;78.55;99984.44;5011777;28;20109;-74
2023/02/11 03:16:19;;;;;;;75.15;62.53;;;;;;;-1.03;78.63;99982.50;5011677;28;20026;-73
2023/02/11 03:18:49;;;;;;;72.20;61.28;;;;;;;-0.89;77.94;99974.25;5027634;28;20033;-73
2023/02/11 03:21:16;;;;;;;74.28;62.92;;;;;;;-0.94;78.24;99972.00;4975933;28;20042;-73
2023/02/11 03:23:49;;;;;;;73.28;63.63;;;;;;;-0.86;78.41;99966.06;4991884;28;20109;-73
2023/02/11 03:26:31;;;;;;;69.60;61.80;;;;;;;-0.87;78.64;99964.38;4975629;28;20042;-73
2023/02/11 03:28:59;;;;;;;69.20;61.05;;;;;;;-0.86;78.73;99968.69;4991304;28;20085;-73
2023/02/11 03:31:37;;;;;;;72.50;62.53;;;;;;;-0.84;78.81;99969.44;4991704;28;20030;-73
2023/02/11 03:34:08;;;;;;;75.03;63.28;;;;;;;-0.87;78.54;99969.69;4988616;28;20039;-73
2023/02/11 03:36:46;;;;;;;70.38;62.53;;;;;;;-0.77;78.26;99967.94;4991604;28;20062;-73
2023/02/11 03:39:28;;;;;;;67.20;59.53;;;;;;;-0.70;77.89;99974.38;4991364;28;20125;-74
2023/02/11 03:41:54;;;;;;;65.15;57.97;;;;;;;-0.68;78.25;99977.75;4992076;28;20041;-74
2023/02/11 03:44:21;;;;;;;68.55;60.38;;;;;;;-0.76;78.43;99985.47;5027612;28;20383;-74
2023/02/11 03:46:49;;;;;;;72.15;61.80;;;;;;;-0.74;77.98;99994.97;5022895;28;20038;-73
2023/02/11 03:49:18;;;;;;;67.60;60.05;;;;;;;-0.65;78.42;99988.03;5002474;28;20033;-75
2023/02/11 03:51:45;;;;;;;67.72;60.35;;;;;;;-0.72;78.26;99971.88;5006521;28;20053;-74
2023/02/11 03:54:13;;;;;;;69.07;61.17;;;;;;;-0.75;78.24;99958.06;5002864;28;20025;-74
2023/02/11 03:56:44;;;;;;;72.05;63.70;;;;;;;-0.72;78.45;99960.44;5027251;28;20052;-73
2023/02/11 03:59:10;;;;;;;68.97;60.50;;;;;;;-0.79;78.95;99938.13;5010361;28;20556;-73
2023/02/11 04:01:35;;;;;;;70.35;62.67;;;;;;;-0.85;78.70;99930.72;5013030;28;20101;-73
2023/02/11 04:04:00;;;;;;;67.70;60.28;;;;;;;-0.73;78.46;99932.31;5014541;28;20034;-75
2023/02/11 04:06:26;;;;;;;68.70;60.05;;;;;;;-0.82;78.61;99912.78;4977888;28;20450;-74
2023/02/11 04:08:51;;;;;;;69.35;60.10;;;;;;;-0.79;78.79;99901.94;5011444;28;20121;-74
2023/02/11 04:11:17;;;;;;;66.95;58.65;;;;;;;-0.76;78.75;99891.09;4978286;28;20424;-74
2023/02/11 04:13:42;;;;;;;68.35;58.13;;;;;;;-0.73;78.78;99895.31;5004874;28;20111;-74
2023/02/11 04:16:08;;;;;;;69.93;59.30;;;;;;;-0.61;78.52;99912.78;4994112;28;20117;-73
2023/02/11 04:18:33;;;;;;;64.47;57.35;;;;;;;-0.63;78.49;99909.41;5011378;28;20038;-73
2023/02/11 04:20:58;;;;;;;68.13;60.10;;;;;;;-0.66;78.56;99901.75;5004960;28;20034;-74
2023/02/11 04:23:24;;;;;;;66.78;58.38;;;;;;;-0.63;78.33;99906.75;4992215;28;20114;-73
2023/02/11 04:25:49;;;;;;;68.13;60.72;;;;;;;-0.68;79.50;99918.72;4974779;28;20034;-74
2023/02/11 04:28:15;;;;;;;71.35;63.63;;;;;;;-0.74;78.69;99914.78;4974169;28;20041;-74
2023/02/11 04:30:40;;;;;;;68.18;60.75;;;;;;;-0.68;79.11;99932.78;4973300;28;20041;-73
2023/02/11 04:33:05;;;;;;;71.50;63.72;;;;;;;-0.76;79.53;99927.28;5003797;28;20044;-74
2023/02/11 04:35:31;;;;;;;68.15;60.85;;;;;;;-0.77;79.30;99920.34;5013627;28;20095;-74
2023/02/11 04:37:56;;;;;;;67.78;59.60;;;;;;;-0.63;79.46;99932.38;5011157;28;20462;-74
2023/02/11 04:40:21;;;;;;;66.00;58.78;;;;;;;-0.64;78.86;99928.91;5026918;28;20022;-73
2023/02/11 04:42:47;;;;;;;67.68;60.28;;;;;;;-0.62;79.44;99932.25;5011586;28;20436;-72
2023/02/11 04:45:12;;;;;;;66.95;59.60;;;;;;;-0.58;79.23;99917.78;5010264;28;20029;-71
2023/02/11 04:47:38;;;;;;;69.75;61.78;;;;;;;-0.70;79.49;99917.03;5026194;28;20037;-71
2023/02/11 04:50:04;;;;;;;66.80;59.47;;;;;;;-0.63;79.54;99938.50;5005303;28;20369;-72
2023/02/11 04:52:29;;;;;;;67.82;60.33;;;;;;;-0.61;79.59;99926.00;5007677;28;20030;-72
2023/02/11 04:54:55;;;;;;;69.57;61.67;;;;;;;-0.65;79.56;99919.28;5008917;28;20396;-72
2023/02/11 04:57:20;;;;;;;69.15;60.83;;;;;;;-0.62;79.53;99916.38;4993318;28;20042;-72
2023/02/11 04:59:45;;;;;;;69.15;61.60;;;;;;;-0.72;79.19;99912.81;4993758;28;20018;-72
2023/02/11 05:02:11;;;;;;;64.82;57.97;;;;;;;-0.63;79.85;99901.47;4994274;28;20777;-73
2023/02/11 05:04:36;;;;;;;68.57;58.13;;;;;;;-0.58;79.72;99915.13;5011634;28;20074;-75
2023/02/11 05:07:01;;;;;;;65.05;57.78;;;;;;;-0.72;79.60;99902.25;5013289;28;20551;-74
2023/02/11 05:09:27;;;;;;;65.88;58.83;;;;;;;-0.72;79.11;99875.81;5014863;28;20029;-73
2023/02/11 05:11:52;;;;;;;67.20;57.67;;;;;;;-0.95;80.23;99863.72;5030494;28;20545;-75
2023/02/11 05:14:18;;;;;;;67.70;59.65;;;;;;;-0.89;80.20;99863.22;5013710;28;20508;-74
2023/02/11 05:16:43;;;;;;;67.97;60.63;;;;;;;-0.91;80.38;99854.56;4997279;28;20038;-73
2023/02/11 05:19:08;;;;;;;68.15;60.80;;;;;;;-0.92;80.49;99860.81;5026461;28;20045;-74
2023/02/11 05:21:34;;;;;;;67.97;60.35;;;;;;;-0.94;80.58;99862.75;5005068;28;20510;-74
2023/02/11 05:23:59;;;;;;;69.55;61.88;;;;;;;-0.93;80.89;99882.91;5016938;28;20032;-74
2023/02/11 05:26:25;;;;;;;66.90;59.55;;;;;;;-0.82;79.92;99890.81;4987881;28;20038;-74
2023/02/11 05:28:50;;;;;;;73.80;63.25;;;;;;;-0.89;79.92;99884.38;4976915;28;20092;-73
2023/02/11 05:31:16;;;;;;;67.07;60.05;;;;;;;-0.89;80.21;99895.75;5014702;28;20112;-73
2023/02/11 05:33:42;;;;;;;70.13;62.60;;;;;;;-0.90;80.08;99903.81;5012760;28;20122;-72
2023/02/11 05:36:09;;;;;;;68.00;60.38;;;;;;;-0.91;80.41;99896.88;4994641;28;20034;-73
2023/02/11 05:38:35;;;;;;;68.60;61.13;;;;;;;-0.76;79.90;99896.41;5009119;28;20476;-73
2023/02/11 05:41:01;;;;;;;65.38;58.47;;;;;;;-0.83;79.81;99904.97;4997189;28;20044;-73
2023/02/11 05:43:27;;;;;;;68.25;60.78;;;;;;;-0.78;79.97;99908.91;5013298;28;20045;-73
2023/02/11 05:45:52;;;;;;;66.95;59.85;;;;;;;-0.87;79.87;99888.56;5010060;28;20488;-75
2023/02/11 05:48:17;;;;;;;69.75;62.33;;;;;;;-0.95;80.88;99890.16;5005494;28;20022;-73
2023/02/11 05:50:43;;;;;;;67.60;60.55;;;;;;;-0.90;80.60;99914.41;4993859;28;20026;-73
2023/02/11 05:53:09;;;;;;;67.20;60.17;;;;;;;-0.94;80.42;99891.84;5009375;28;20387;-73
2023/02/11 05:55:34;;;;;;;67.70;60.58;;;;;;;-1.05;80.82;99897.22;5004211;28;20034;-73
2023/02/11 05:58:00;;;;;;;72.05;64.60;;;;;;;-1.04;80.63;99883.00;5007647;28;20072;-71
2023/02/11 06:00:25;;;;;;;68.32;61.00;;;;;;;-0.91;80.59;99881.00;5013054;28;20415;-74
2023/02/11 06:02:51;;;;;;;68.28;60.92;;;;;;;-0.84;80.15;99882.97;5013033;28;20527;-73
2023/02/11 06:05:16;;;;;;;67.95;60.28;;;;;;;-0.85;80.50;99885.75;5019720;28;20487;-74
2023/02/11 06:07:42;;;;;;;71.38;63.95;;;;;;;-0.75;80.17;99886.66;5022352;28;20430;-73
2023/02/11 06:10:07;;;;;;;73.95;65.25;;;;;;;-0.72;80.25;99886.38;5019881;28;20038;-73
2023/02/11 06:12:33;;;;;;;68.72;61.15;;;;;;;-0.63;80.45;99906.75;5015935;28;20033;-74
2023/02/11 06:14:58;;;;;;;109.07;98.57;;;;;;;-0.52;79.81;99893.47;5005043;28;20120;-74
2023/02/11 06:17:24;;;;;;;67.55;60.38;;;;;;;-0.65;79.84;99876.13;5022423;28;20118;-73
2023/02/11 06:19:49;;;;;;;83.30;74.90;;;;;;;-0.78;80.36;99886.91;5003380;28;20038;-73
2023/02/11 06:22:15;;;;;;;126.30;114.82;;;;;;;-0.68;80.57;99900.19;4999449;28;20112;-74
2023/02/11 06:24:40;;;;;;;208.90;192.40;;;;;;;-0.59;80.25;99892.31;5003725;28;20502;-74
2023/02/11 06:27:06;;;;;;;74.70;67.00;;;;;;;-0.66;79.97;99895.59;5007843;28;20448;-75
2023/02/11 06:29:31;;;;;;;76.47;68.30;;;;;;;-0.62;80.22;99908.44;5013562;28;20041;-75
2023/02/11 06:31:56;;;;;;;66.95;60.05;;;;;;;-0.74;80.50;99912.13;5028911;28;20034;-75
2023/02/11 06:34:22;;;;;;;66.50;59.45;;;;;;;-0.87;81.02;99915.00;5020811;28;20539;-73
2023/02/11 06:36:47;;;;;;;69.22;61.92;;;;;;;-0.89;81.03;99910.81;5005348;28;20113;-73
2023/02/11 06:39:13;;;;;;;74.78;66.90;;;;;;;-0.77;81.58;99909.75;5017460;28;20120;-73
2023/02/11 06:41:38;;;;;;;75.28;67.30;;;;;;;-0.82;80.89;99893.44;5015441;28;20041;-73
2023/02/11 06:44:04;;;;;;;77.63;69.55;;;;;;;-0.91;81.63;99896.88;5004115;28;20169;-74
2023/02/11 06:46:29;;;;;;;69.03;61.65;;;;;;;-1.00;81.58;99897.63;5006951;28;20025;-75
2023/02/11 06:48:54;;;;;;;72.70;64.88;;;;;;;-0.82;81.07;99896.09;4975762;28;20045;-75
2023/02/11 06:51:20;;;;;;;73.93;66.15;;;;;;;-0.63;80.24;99896.16;4992436;28;20022;-75
2023/02/11 06:53:46;;;;;;;69.18;61.85;;;;;;;-0.59;80.46;99881.72;5000075;28;20037;-75
2023/02/11 06:56:17;;;;;;;67.18;59.90;;;;;;;-0.55;80.54;99885.78;4995402;28;20483;-73
2023/02/11 06:58:42;;;;;;;63.50;56.78;;;;;;;-0.53;80.66;99883.00;5011202;28;20033;-75
2023/02/11 07:01:10;;;;;;;66.45;59.20;;;;;;;-0.48;81.04;99889.56;5024816;28;20510;-73
2023/02/11 07:03:37;;;;;;;64.47;57.58;;;;;;;-0.29;80.29;99902.88;5028181;28;20049;-76
2023/02/11 07:06:07;;;;;;;65.55;58.80;;;;;;;-0.42;80.70;99902.25;4982511;28;20026;-75
2023/02/11 07:08:36;;;;;;;64.80;57.85;;;;;;;-0.35;80.70;99899.94;5001408;28;20046;-75
2023/02/11 07:11:14;;;;;;;66.72;59.75;;;;;;;-0.47;81.19;99901.84;4992677;28;20036;-74
2023/02/11 07:13:40;;;;;;;82.68;73.95;;;;;;;-0.33;80.90;99904.13;4995181;28;20177;-75
2023/02/11 07:16:07;;;;;;;96.75;86.25;;;;;;;-0.37;80.69;99892.09;4999837;28;20104;-75
2023/02/11 07:18:32;;;;;;;78.97;70.47;;;;;;;-0.31;80.83;99910.13;4998978;28;20045;-75
2023/02/11 07:20:57;;;;;;;69.13;61.85;;;;;;;-0.18;80.43;99918.66;5010049;28;20037;-74
2023/02/11 07:23:23;;;;;;;76.75;68.53;;;;;;;-0.16;81.07;99911.41;5000164;28;20034;-74
2023/02/11 07:25:48;;;;;;;71.95;64.47;;;;;;;-0.06;80.32;99912.28;5011022;28;20411;-74
2023/02/11 07:28:14;;;;;;;66.72;59.60;;;;;;;0.09;79.36;99920.69;5010939;28;20091;-73
2023/02/11 07:30:39;;;;;;;66.40;59.28;;;;;;;0.21;79.42;99929.38;5024947;28;20018;-75
2023/02/11 07:33:04;;;;;;;70.47;63.20;;;;;;;0.08;80.01;99926.09;5026658;28;20492;-74
2023/02/11 07:35:30;;;;;;;66.30;59.28;;;;;;;0.13;79.89;99926.53;5009829;28;20018;-75
2023/02/11 07:37:55;;;;;;;65.10;58.10;;;;;;;0.16;79.98;99921.81;5009550;28;20124;-75
2023/02/11 07:40:21;;;;;;;63.42;56.63;;;;;;;0.28;79.60;99935.78;5008707;28;20037;-74
2023/02/11 07:42:46;;;;;;;65.82;59.00;;;;;;;0.27;79.27;99934.09;5011807;28;20061;-75
2023/02/11 07:45:12;;;;;;;61.28;54.60;;;;;;;0.34;79.48;99945.84;5027071;28;20119;-75
2023/02/11 07:47:38;;;;;;;68.28;61.10;;;;;;;0.38;79.55;99936.63;4998097;28;20034;-74
2023/02/11 07:50:03;;;;;;;66.35;59.22;;;;;;;0.26;79.71;99937.72;4975417;28;20357;-75
2023/02/11 07:52:29;;;;;;;61.28;55.05;;;;;;;0.40;79.21;99942.63;4975644;28;20042;-74
2023/02/11 07:54:55;;;;;;;63.13;56.53;;;;;;;0.55;78.72;99941.25;4975239;28;20027;-74
2023/02/11 07:57:21;;;;;;;62.05;55.65;;;;;;;0.49;79.02;99939.19;4974867;28;20587;-75
2023/02/11 07:59:46;;;;;;;61.83;55.50;;;;;;;0.61;78.30;99927.44;5006302;28;20026;-75
2023/02/11 08:02:12;;;;;;;63.35;56.53;;;;;;;0.58;78.30;99933.03;5000533;28;20503;-74
2023/02/11 08:04:37;;;;;;;63.95;57.47;;;;;;;0.63;78.73;99925.50;4959312;28;20105;-75
2023/02/11 08:07:03;;;;;;;61.30;55.00;;;;;;;0.63;78.23;99923.69;5001692;28;20064;-75
2023/02/11 08:09:29;;;;;;;63.47;56.80;;;;;;;0.67;78.38;99937.50;5012197;28;20022;-75
2023/02/11 08:11:54;;;;;;;63.25;56.63;;;;;;;0.68;78.07;99928.56;5011222;28;20116;-75
2023/02/11 08:14:20;;;;;;;59.40;53.05;;;;;;;0.63;78.73;99914.91;5027410;28;20101;-74
2023/02/11 08:16:45;;;;;;;59.97;53.67;;;;;;;0.65;77.91;99902.34;5010820;28;20049;-75
2023/02/11 08:19:12;;;;;;;60.72;54.33;;;;;;;0.73;78.23;99899.81;5010494;28;20033;-75
2023/02/11 08:21:38;;;;;;;61.03;54.63;;;;;;;0.73;78.30;99910.44;4994531;28;20034;-74
2023/02/11 08:24:04;;;;;;;59.83;53.72;;;;;;;0.76;78.58;99915.47;5026728;28;20036;-74
2023/02/11 08:26:33;;;;;;;60.00;53.75;;;;;;;0.76;78.76;99920.75;5010796;28;20057;-75
2023/02/11 08:29:00;;;;;;;59.75;53.65;;;;;;;0.76;78.23;99926.06;5009864;28;20026;-75
2023/02/11 08:31:29;;;;;;;59.70;53.58;;;;;;;0.80;78.82;99923.94;5012622;28;20029;-75
2023/02/11 08:33:56;;;;;;;61.08;54.88;;;;;;;0.82;78.14;99925.50;5014497;28;20038;-74
2023/02/11 08:36:27;;;;;;;57.33;51.20;;;;;;;0.83;77.54;99945.75;5020411;28;20038;-74
2023/02/11 08:38:54;;;;;;;59.15;53.03;;;;;;;0.91;78.85;99951.16;4984533;28;20052;-75
2023/02/11 08:41:20;;;;;;;58.08;52.08;;;;;;;0.87;78.10;99936.53;5014597;28;20026;-71
2023/02/11 08:43:45;;;;;;;64.85;58.03;;;;;;;0.97;78.15;99945.31;5017623;28;20416;-74
2023/02/11 08:46:13;;;;;;;61.10;54.47;;;;;;;0.94;78.12;99948.25;5011170;28;20026;-74
2023/02/11 08:48:39;;;;;;;62.63;55.85;;;;;;;0.88;78.30;99954.13;4994967;28;20044;-75
2023/02/11 08:51:07;;;;;;;62.50;56.15;;;;;;;0.91;78.12;99961.78;5001683;28;20023;-74
2023/02/11 08:53:32;;;;;;;63.22;56.65;;;;;;;1.01;77.62;99946.69;4991496;28;20042;-74
2023/02/11 08:55:57;;;;;;;58.83;52.58;;;;;;;1.08;77.80;99936.34;5006769;28;20094;-75
2023/02/11 08:58:23;;;;;;;59.10;53.00;;;;;;;1.13;77.92;99934.97;5000561;28;20546;-75
2023/02/11 09:00:48;;;;;;;57.50;51.60;;;;;;;1.18;76.55;99947.81;5014200;28;20025;-74
2023/02/11 09:03:14;;;;;;;56.80;50.78;;;;;;;1.01;78.35;99946.69;5014113;28;20061;-74
2023/02/11 09:05:44;;;;;;;58.75;52.60;;;;;;;1.06;78.07;99955.06;5017913;28;20027;-74
2023/02/11 09:08:10;;;;;;;56.80;50.92;;;;;;;1.21;78.15;99952.84;5000620;28;20041;-75
2023/02/11 09:10:36;;;;;;;57.95;52.05;;;;;;;1.33;77.37;99957.81;5000810;28;20398;-75
2023/02/11 09:13:01;;;;;;;56.65;50.60;;;;;;;1.42;76.97;99965.91;5007321;28;20129;-75
2023/02/11 09:15:27;;;;;;;59.38;53.03;;;;;;;1.38;76.82;99960.88;5023839;28;20101;-75
2023/02/11 09:17:52;;;;;;;58.38;50.65;;;;;;;1.55;76.34;99953.16;5001612;28;20069;-74
2023/02/11 09:20:18;;;;;;;53.35;47.95;;;;;;;1.46;76.24;99951.38;5017141;28;20023;-75
2023/02/11 09:22:43;;;;;;;53.58;47.97;;;;;;;1.57;76.28;99953.84;5016764;28;20064;-74
2023/02/11 09:25:09;;;;;;;54.72;48.92;;;;;;;1.66;76.42;99947.69;5002112;28;20073;-75
2023/02/11 09:27:35;;;;;;;53.15;47.85;;;;;;;1.81;75.34;99952.38;5010003;28;20479;-75
2023/02/11 09:30:00;;;;;;;56.25;50.47;;;;;;;1.72;75.72;99941.81;5007305;28;20014;-74
2023/02/11 09:32:26;;;;;;;54.72;49.13;;;;;;;1.98;75.81;99948.94;5007081;28;20046;-74
2023/02/11 09:34:51;;;;;;;61.78;52.72;;;;;;;1.94;75.26;99941.41;5003012;28;20091;-75
2023/02/11 09:37:16;;;;;;;52.28;46.10;;;;;;;1.94;74.82;99944.06;5012438;28;20038;-75
2023/02/11 09:39:44;;;;;;;56.65;50.80;;;;;;;1.88;75.76;99931.38;5029915;28;20026;-75
2023/02/11 09:42:22;;;;;;;52.90;45.42;;;;;;;2.04;75.39;99942.22;5006897;28;20535;-72
2023/02/11 09:44:48;;;;;;;53.58;47.88;;;;;;;2.03;74.82;99940.56;5023565;28;20121;-74
2023/02/11 09:47:25;;;;;;;54.42;48.58;;;;;;;2.17;74.74;99942.69;5017153;28;20110;-75
2023/02/11 09:49:56;;;;;;;58.33;52.13;;;;;;;2.14;76.07;99948.31;5013361;28;20033;-74
2023/02/11 09:52:43;;;;;;;59.05;52.85;;;;;;;2.30;74.40;99947.66;5009978;28;20121;-75
2023/02/11 09:55:18;;;;;;;50.42;45.03;;;;;;;2.33;75.38;99942.91;5008015;28;20034;-75
2023/02/11 09:57:43;;;;;;;52.77;45.90;;;;;;;2.36;74.20;99947.91;5006766;28;20112;-76
2023/02/11 10:00:24;;;;;;;52.00;46.53;;;;;;;2.48;73.97;99943.22;5013850;28;20432;-75
2023/02/11 10:02:55;;;;;;;51.38;45.80;;;;;;;2.61;73.92;99941.03;5009285;28;20495;-75
2023/02/11 10:05:27;;;;;;;47.88;41.85;;;;;;;2.64;74.81;99940.72;5012926;28;20076;-75
2023/02/11 10:08:02;;;;;;;48.97;43.83;;;;;;;2.45;74.25;99941.69;5024416;28;20117;-75
2023/02/11 10:10:37;;;;;;;51.43;44.77;;;;;;;2.47;75.42;99944.22;4993163;28;20034;-76
2023/02/11 10:13:17;;;;;;;53.67;48.07;;;;;;;2.61;75.38;99949.81;5001030;28;20281;-74
2023/02/11 10:15:55;;;;;;;48.72;43.63;;;;;;;2.65;75.05;99956.53;4999717;28;20034;-75
2023/02/11 10:18:45;;;;;;;51.00;45.60;;;;;;;2.67;74.59;99951.91;5011986;28;20042;-76
2023/02/11 10:21:33;;;;;;;48.60;43.28;;;;;;;2.83;74.58;99950.38;5029249;28;20077;-74
2023/02/11 10:24:01;;;;;;;48.22;43.15;;;;;;;2.92;74.25;99954.81;5029153;28;20484;-75
2023/02/11 10:26:29;;;;;;;47.38;42.15;;;;;;;2.93;73.67;99945.81;5012600;28;20030;-75
2023/02/11 10:28:58;;;;;;;48.80;43.78;;;;;;;2.99;75.06;99953.22;4997407;28;20448;-76
2023/02/11 10:31:26;;;;;;;51.47;45.05;;;;;;;2.86;75.00;99956.25;5001624;28;20081;-74
2023/02/11 10:33:59;;;;;;;52.78;47.28;;;;;;;2.88;73.99;99970.22;4989431;28;20034;-75
2023/02/11 10:36:28;;;;;;;52.45;47.05;;;;;;;2.94;74.39;99980.25;5004837;28;20104;-74
2023/02/11 10:38:53;;;;;;;51.83;45.58;;;;;;;2.93;73.76;99977.75;4995329;28;20113;-74
2023/02/11 10:41:23;;;;;;;46.72;41.85;;;;;;;3.00;73.60;99979.66;5012160;28;20143;-74
2023/02/11 10:43:49;;;;;;;48.03;43.13;;;;;;;3.12;73.27;99966.94;4999236;28;20451;-74
2023/02/11 10:46:21;;;;;;;47.13;42.08;;;;;;;3.17;74.18;99964.66;5028551;28;20480;-74
2023/02/11 10:48:52;;;;;;;49.38;44.03;;;;;;;3.18;73.61;99955.66;5028043;28;20041;-74
2023/02/11 10:51:27;;;;;;;48.35;42.78;;;;;;;3.16;74.17;99968.31;4998843;28;20572;-74
2023/02/11 10:54:18;;;;;;;48.38;43.22;;;;;;;3.16;73.99;99955.00;5027601;28;20551;-74
2023/02/11 10:56:49;;;;;;;46.47;41.20;;;;;;;3.48;72.99;99948.09;5013103;28;20095;-74
2023/02/11 10:59:30;;;;;;;46.63;41.05;;;;;;;3.50;72.80;99938.09;5009343;28;20053;-74
2023/02/11 11:01:59;;;;;;;45.55;40.72;;;;;;;3.50;72.84;99937.28;4970840;28;20107;-75
2023/02/11 11:04:39;;;;;;;48.05;42.67;;;;;;;3.54;72.72;99929.81;4974913;28;20023;-74
2023/02/11 11:07:17;;;;;;;47.15;42.13;;;;;;;3.67;72.76;99936.38;5010855;28;20058;-75
2023/02/11 11:09:54;;;;;;;47.03;41.97;;;;;;;3.54;73.17;99946.63;4998387;28;20026;-74
2023/02/11 11:12:46;;;;;;;46.88;41.78;;;;;;;3.47;73.84;99945.59;4995400;28;20072;-76
2023/02/11 11:15:17;;;;;;;48.50;43.38;;;;;;;3.51;73.70;99949.59;5006714;28;20041;-74
2023/02/11 11:17:43;;;;;;;48.20;43.05;;;;;;;3.61;73.62;99945.00;5009598;28;20503;-76
2023/02/11 11:20:19;;;;;;;47.85;42.47;;;;;;;3.56;73.62;99941.97;4993112;28;20022;-76
2023/02/11 11:22:44;;;;;;;;;;;;;;;3.46;73.45;99947.41;5008643;28;20120;-76
2023/02/11 11:25:24;;;;;;;48.80;43.80;;;;;;;3.52;73.59;99937.97;5014675;28;19953;-75
2023/02/11 11:27:52;;;;;;;46.47;41.53;;;;;;;3.61;73.24;99949.50;4974990;28;20037;-76
2023/02/11 11:30:18;;;;;;;47.50;42.28;;;;;;;3.76;74.03;99945.25;4975577;28;20015;-76